sensor_id;sensor_type;location;lat;lon;timestamp;temperature;humidity
9537;DHT22;4807;48.024;11.726;2022-09-03T00:00:02;11.00;99.90
9537;DHT22;4807;48.024;11.726;2022-09-03T00:03:19;11.00;99.90
9537;DHT22;4807;48.024;11.726;2022-09-03T00:06:33;11.10;99.90
9537;DHT22;4807;48.024;11.726;2022-09-03T00:09:48;10.00;99.90
9537;DHT22;4807;48.024;11.726;2022-09-03T00:13:04;11.10;99.90
9537;DHT22;4807;48.024;11.726;2022-09-03T00:16:17;11.30;99.90
9537;DHT22;4807;48.024;11.726;2022-09-03T00:19:33;11.30;99.90
9537;DHT22;4807;48.024;11.726;2022-09-03T00:22:48;11.30;99.90
9537;DHT22;4807;48.024;11.726;2022-09-03T00:26:05;11.30;99.90
9537;DHT22;4807;48.024;11.726;2022-09-03T00:29:30;11.20;99.90
9537;DHT22;4807;48.024;11.726;2022-09-03T00:32:45;11.30;99.90
9537;DHT22;4807;48.024;11.726;2022-09-03T00:36:09;11.50;99.90
9537;DHT22;4807;48.024;11.726;2022-09-03T00:39:24;11.50;99.90
9537;DHT22;4807;48.024;11.726;2022-09-03T00:42:41;11.40;99.90
9537;DHT22;4807;48.024;11.726;2022-09-03T00:46:05;11.60;99.90
9537;DHT22;4807;48.024;11.726;2022-09-03T00:49:34;11.20;99.90
9537;DHT22;4807;48.024;11.726;2022-09-03T00:53:00;11.20;99.90
9537;DHT22;4807;48.024;11.726;2022-09-03T00:56:20;11.10;99.90
9537;DHT22;4807;48.024;11.726;2022-09-03T00:59:39;11.00;99.90
9537;DHT22;4807;48.024;11.726;2022-09-03T01:03:04;10.90;99.90
9537;DHT22;4807;48.024;11.726;2022-09-03T01:06:17;11.00;99.90
9537;DHT22;4807;48.024;11.726;2022-09-03T01:13:51;10.80;99.90
9537;DHT22;4807;48.024;11.726;2022-09-03T01:17:12;10.80;99.90
9537;DHT22;4807;48.024;11.726;2022-09-03T01:20:37;10.80;99.90
9537;DHT22;4807;48.024;11.726;2022-09-03T01:24:11;10.80;99.90
9537;DHT22;4807;48.024;11.726;2022-09-03T01:27:43;10.80;99.90
9537;DHT22;4807;48.024;11.726;2022-09-03T01:31:07;10.90;99.90
9537;DHT22;4807;48.024;11.726;2022-09-03T01:34:32;10.90;99.90
9537;DHT22;4807;48.024;11.726;2022-09-03T01:38:00;11.10;99.90
9537;DHT22;4807;48.024;11.726;2022-09-03T01:41:28;11.10;99.90
9537;DHT22;4807;48.024;11.726;2022-09-03T01:45:19;11.20;99.90
9537;DHT22;4807;48.024;11.726;2022-09-03T01:49:07;11.30;99.90
9537;DHT22;4807;48.024;11.726;2022-09-03T01:52:40;11.40;99.90
9537;DHT22;4807;48.024;11.726;2022-09-03T01:56:07;11.50;99.90
9537;DHT22;4807;48.024;11.726;2022-09-03T02:19:56;11.30;99.90
9537;DHT22;4807;48.024;11.726;2022-09-03T02:23:05;11.20;99.90
9537;DHT22;4807;48.024;11.726;2022-09-03T02:26:17;11.30;99.90
9537;DHT22;4807;48.024;11.726;2022-09-03T02:29:28;11.40;99.90
9537;DHT22;4807;48.024;11.726;2022-09-03T02:32:38;11.30;99.90
9537;DHT22;4807;48.024;11.726;2022-09-03T02:35:47;11.20;99.90
9537;DHT22;4807;48.024;11.726;2022-09-03T02:38:56;11.20;99.90
9537;DHT22;4807;48.024;11.726;2022-09-03T02:42:05;11.20;99.90
9537;DHT22;4807;48.024;11.726;2022-09-03T02:45:22;11.10;99.90
9537;DHT22;4807;48.024;11.726;2022-09-03T02:48:36;11.10;99.90
9537;DHT22;4807;48.024;11.726;2022-09-03T02:51:45;8.80;99.90
9537;DHT22;4807;48.024;11.726;2022-09-03T02:54:53;11.00;99.90
9537;DHT22;4807;48.024;11.726;2022-09-03T02:58:01;11.00;99.90
9537;DHT22;4807;48.024;11.726;2022-09-03T03:01:11;10.90;99.90
9537;DHT22;4807;48.024;11.726;2022-09-03T03:04:31;11.10;99.90
9537;DHT22;4807;48.024;11.726;2022-09-03T03:07:40;8.60;99.90
9537;DHT22;4807;48.024;11.726;2022-09-03T03:10:50;11.10;99.90
9537;DHT22;4807;48.024;11.726;2022-09-03T03:13:59;11.00;99.90
9537;DHT22;4807;48.024;11.726;2022-09-03T03:17:07;11.00;99.90
9537;DHT22;4807;48.024;11.726;2022-09-03T03:20:17;10.90;99.90
9537;DHT22;4807;48.024;11.726;2022-09-03T03:23:25;10.80;99.90
9537;DHT22;4807;48.024;11.726;2022-09-03T03:26:34;9.30;99.90
9537;DHT22;4807;48.024;11.726;2022-09-03T03:29:42;10.50;99.90
9537;DHT22;4807;48.024;11.726;2022-09-03T03:32:52;10.50;99.90
9537;DHT22;4807;48.024;11.726;2022-09-03T03:36:07;10.50;99.90
9537;DHT22;4807;48.024;11.726;2022-09-03T03:39:17;10.50;99.90
9537;DHT22;4807;48.024;11.726;2022-09-03T03:42:26;10.50;99.90
9537;DHT22;4807;48.024;11.726;2022-09-03T03:45:35;10.50;99.90
9537;DHT22;4807;48.024;11.726;2022-09-03T03:48:46;10.40;99.90
9537;DHT22;4807;48.024;11.726;2022-09-03T03:51:56;10.40;99.90
9537;DHT22;4807;48.024;11.726;2022-09-03T03:55:05;10.40;99.90
9537;DHT22;4807;48.024;11.726;2022-09-03T03:58:14;10.40;99.90
9537;DHT22;4807;48.024;11.726;2022-09-03T04:01:23;10.40;99.90
9537;DHT22;4807;48.024;11.726;2022-09-03T04:04:34;10.30;99.90
9537;DHT22;4807;48.024;11.726;2022-09-03T04:07:44;10.30;99.90
9537;DHT22;4807;48.024;11.726;2022-09-03T04:10:52;10.30;99.90
9537;DHT22;4807;48.024;11.726;2022-09-03T04:14:02;10.30;99.90
9537;DHT22;4807;48.024;11.726;2022-09-03T04:17:10;10.30;99.90
9537;DHT22;4807;48.024;11.726;2022-09-03T04:20:18;10.30;99.90
9537;DHT22;4807;48.024;11.726;2022-09-03T04:23:28;10.20;99.90
9537;DHT22;4807;48.024;11.726;2022-09-03T04:26:38;10.30;99.90
9537;DHT22;4807;48.024;11.726;2022-09-03T04:29:46;10.30;99.90
9537;DHT22;4807;48.024;11.726;2022-09-03T04:32:55;10.30;99.90
9537;DHT22;4807;48.024;11.726;2022-09-03T04:36:06;10.40;99.90
9537;DHT22;4807;48.024;11.726;2022-09-03T04:39:17;10.40;99.90
9537;DHT22;4807;48.024;11.726;2022-09-03T04:42:26;10.60;99.90
9537;DHT22;4807;48.024;11.726;2022-09-03T04:45:35;10.70;99.90
9537;DHT22;4807;48.024;11.726;2022-09-03T04:48:46;10.70;99.90
9537;DHT22;4807;48.024;11.726;2022-09-03T04:51:57;10.80;99.90
9537;DHT22;4807;48.024;11.726;2022-09-03T04:55:07;10.90;99.90
9537;DHT22;4807;48.024;11.726;2022-09-03T04:58:17;10.90;99.90
9537;DHT22;4807;48.024;11.726;2022-09-03T05:01:29;10.80;99.90
9537;DHT22;4807;48.024;11.726;2022-09-03T05:04:38;10.80;99.90
9537;DHT22;4807;48.024;11.726;2022-09-03T05:07:47;10.90;99.90
9537;DHT22;4807;48.024;11.726;2022-09-03T05:11:00;10.90;99.90
9537;DHT22;4807;48.024;11.726;2022-09-03T05:14:09;11.10;99.90
9537;DHT22;4807;48.024;11.726;2022-09-03T05:17:27;11.10;99.90
9537;DHT22;4807;48.024;11.726;2022-09-03T05:20:42;11.40;99.90
9537;DHT22;4807;48.024;11.726;2022-09-03T05:23:51;11.50;99.90
9537;DHT22;4807;48.024;11.726;2022-09-03T05:27:02;11.60;99.90
9537;DHT22;4807;48.024;11.726;2022-09-03T05:30:11;11.80;99.90
9537;DHT22;4807;48.024;11.726;2022-09-03T05:33:19;12.00;99.90
9537;DHT22;4807;48.024;11.726;2022-09-03T05:36:31;12.20;99.90
9537;DHT22;4807;48.024;11.726;2022-09-03T05:39:42;12.30;99.90
9537;DHT22;4807;48.024;11.726;2022-09-03T05:42:55;12.40;99.90
9537;DHT22;4807;48.024;11.726;2022-09-03T05:46:07;12.50;99.90
9537;DHT22;4807;48.024;11.726;2022-09-03T05:49:17;12.60;99.90
9537;DHT22;4807;48.024;11.726;2022-09-03T05:52:25;12.80;99.90
9537;DHT22;4807;48.024;11.726;2022-09-03T05:55:33;13.10;99.90
9537;DHT22;4807;48.024;11.726;2022-09-03T05:58:45;13.10;99.90
9537;DHT22;4807;48.024;11.726;2022-09-03T06:01:53;13.20;99.90
9537;DHT22;4807;48.024;11.726;2022-09-03T06:05:07;13.20;99.90
9537;DHT22;4807;48.024;11.726;2022-09-03T06:08:15;13.30;99.90
9537;DHT22;4807;48.024;11.726;2022-09-03T06:11:24;13.40;99.90
9537;DHT22;4807;48.024;11.726;2022-09-03T06:14:36;12.70;99.90
9537;DHT22;4807;48.024;11.726;2022-09-03T06:17:45;13.60;99.90
9537;DHT22;4807;48.024;11.726;2022-09-03T06:20:54;13.80;99.90
9537;DHT22;4807;48.024;11.726;2022-09-03T06:24:03;14.40;99.90
9537;DHT22;4807;48.024;11.726;2022-09-03T06:27:11;15.60;99.90
9537;DHT22;4807;48.024;11.726;2022-09-03T06:30:22;16.50;99.90
9537;DHT22;4807;48.024;11.726;2022-09-03T06:33:34;17.30;99.90
9537;DHT22;4807;48.024;11.726;2022-09-03T06:36:43;17.70;99.70
9537;DHT22;4807;48.024;11.726;2022-09-03T06:39:51;17.50;99.00
9537;DHT22;4807;48.024;11.726;2022-09-03T06:43:01;18.70;99.90
9537;DHT22;4807;48.024;11.726;2022-09-03T06:46:12;17.30;99.90
9537;DHT22;4807;48.024;11.726;2022-09-03T06:49:22;17.20;99.90
9537;DHT22;4807;48.024;11.726;2022-09-03T06:52:32;16.60;99.90
9537;DHT22;4807;48.024;11.726;2022-09-03T06:55:40;16.80;99.90
9537;DHT22;4807;48.024;11.726;2022-09-03T06:58:49;16.80;99.90
9537;DHT22;4807;48.024;11.726;2022-09-03T07:01:59;16.80;99.90
9537;DHT22;4807;48.024;11.726;2022-09-03T07:05:09;16.80;99.90
9537;DHT22;4807;48.024;11.726;2022-09-03T07:08:18;16.70;99.90
9537;DHT22;4807;48.024;11.726;2022-09-03T07:11:28;16.70;99.90
9537;DHT22;4807;48.024;11.726;2022-09-03T07:14:39;16.70;99.90
9537;DHT22;4807;48.024;11.726;2022-09-03T07:17:50;16.80;99.90
9537;DHT22;4807;48.024;11.726;2022-09-03T07:20:59;17.10;99.90
9537;DHT22;4807;48.024;11.726;2022-09-03T07:24:09;17.30;99.90
9537;DHT22;4807;48.024;11.726;2022-09-03T07:27:18;17.40;99.90
9537;DHT22;4807;48.024;11.726;2022-09-03T07:30:26;17.30;99.90
9537;DHT22;4807;48.024;11.726;2022-09-03T07:33:36;17.10;99.90
9537;DHT22;4807;48.024;11.726;2022-09-03T07:36:46;17.20;99.90
9537;DHT22;4807;48.024;11.726;2022-09-03T07:39:57;17.20;99.90
9537;DHT22;4807;48.024;11.726;2022-09-03T07:43:07;17.20;99.90
9537;DHT22;4807;48.024;11.726;2022-09-03T07:46:24;17.10;99.90
9537;DHT22;4807;48.024;11.726;2022-09-03T07:49:35;17.00;99.90
9537;DHT22;4807;48.024;11.726;2022-09-03T07:52:43;17.10;99.90
9537;DHT22;4807;48.024;11.726;2022-09-03T07:55:52;17.10;99.90
9537;DHT22;4807;48.024;11.726;2022-09-03T07:59:03;17.00;99.90
9537;DHT22;4807;48.024;11.726;2022-09-03T08:02:12;16.70;99.90
9537;DHT22;4807;48.024;11.726;2022-09-03T08:05:22;16.50;99.90
9537;DHT22;4807;48.024;11.726;2022-09-03T08:08:30;16.50;99.90
9537;DHT22;4807;48.024;11.726;2022-09-03T08:11:42;16.50;99.90
9537;DHT22;4807;48.024;11.726;2022-09-03T08:14:50;16.50;99.90
9537;DHT22;4807;48.024;11.726;2022-09-03T08:17:59;16.60;99.90
9537;DHT22;4807;48.024;11.726;2022-09-03T08:21:15;16.80;99.90
9537;DHT22;4807;48.024;11.726;2022-09-03T08:24:26;17.00;99.90
9537;DHT22;4807;48.024;11.726;2022-09-03T08:27:34;17.40;99.90
9537;DHT22;4807;48.024;11.726;2022-09-03T08:30:42;17.90;99.90
9537;DHT22;4807;48.024;11.726;2022-09-03T08:33:52;18.40;99.90
9537;DHT22;4807;48.024;11.726;2022-09-03T08:37:03;18.80;99.90
9537;DHT22;4807;48.024;11.726;2022-09-03T08:40:13;19.10;99.90
9537;DHT22;4807;48.024;11.726;2022-09-03T08:43:21;19.10;99.90
9537;DHT22;4807;48.024;11.726;2022-09-03T08:46:40;19.10;99.90
9537;DHT22;4807;48.024;11.726;2022-09-03T08:49:59;19.30;99.90
9537;DHT22;4807;48.024;11.726;2022-09-03T08:53:16;19.60;99.90
9537;DHT22;4807;48.024;11.726;2022-09-03T08:56:30;19.80;99.90
9537;DHT22;4807;48.024;11.726;2022-09-03T08:59:39;19.90;99.90
9537;DHT22;4807;48.024;11.726;2022-09-03T09:02:55;19.60;99.90
9537;DHT22;4807;48.024;11.726;2022-09-03T09:06:18;19.10;99.90
9537;DHT22;4807;48.024;11.726;2022-09-03T09:09:37;19.20;99.90
9537;DHT22;4807;48.024;11.726;2022-09-03T09:13:04;19.30;99.90
9537;DHT22;4807;48.024;11.726;2022-09-03T09:16:27;19.70;99.90
9537;DHT22;4807;48.024;11.726;2022-09-03T09:19:50;20.20;99.90
9537;DHT22;4807;48.024;11.726;2022-09-03T09:23:13;20.30;99.90
9537;DHT22;4807;48.024;11.726;2022-09-03T09:26:24;20.80;99.90
9537;DHT22;4807;48.024;11.726;2022-09-03T09:29:37;21.10;98.80
9537;DHT22;4807;48.024;11.726;2022-09-03T09:32:46;21.20;98.60
9537;DHT22;4807;48.024;11.726;2022-09-03T09:35:55;21.90;97.40
9537;DHT22;4807;48.024;11.726;2022-09-03T09:39:07;22.30;95.50
9537;DHT22;4807;48.024;11.726;2022-09-03T09:42:21;21.90;94.50
9537;DHT22;4807;48.024;11.726;2022-09-03T09:45:30;21.70;95.80
9537;DHT22;4807;48.024;11.726;2022-09-03T09:48:46;21.90;95.50
9537;DHT22;4807;48.024;11.726;2022-09-03T09:52:03;22.20;94.60
9537;DHT22;4807;48.024;11.726;2022-09-03T09:55:16;22.00;95.20
9537;DHT22;4807;48.024;11.726;2022-09-03T09:58:32;22.40;95.80
9537;DHT22;4807;48.024;11.726;2022-09-03T10:01:43;22.80;94.20
9537;DHT22;4807;48.024;11.726;2022-09-03T10:04:52;22.40;93.20
9537;DHT22;4807;48.024;11.726;2022-09-03T10:08:05;22.10;94.70
9537;DHT22;4807;48.024;11.726;2022-09-03T10:11:25;22.00;94.10
9537;DHT22;4807;48.024;11.726;2022-09-03T10:14:37;22.40;94.80
9537;DHT22;4807;48.024;11.726;2022-09-03T10:17:58;22.80;91.60
9537;DHT22;4807;48.024;11.726;2022-09-03T10:21:12;22.70;92.50
9537;DHT22;4807;48.024;11.726;2022-09-03T10:24:33;22.70;93.40
9537;DHT22;4807;48.024;11.726;2022-09-03T10:27:50;23.00;92.20
9537;DHT22;4807;48.024;11.726;2022-09-03T10:31:12;23.60;92.40
9537;DHT22;4807;48.024;11.726;2022-09-03T10:34:39;23.60;91.30
9537;DHT22;4807;48.024;11.726;2022-09-03T10:38:00;23.60;90.70
9537;DHT22;4807;48.024;11.726;2022-09-03T10:41:26;23.20;91.10
9537;DHT22;4807;48.024;11.726;2022-09-03T10:44:57;23.40;90.90
9537;DHT22;4807;48.024;11.726;2022-09-03T10:48:22;23.80;89.10
9537;DHT22;4807;48.024;11.726;2022-09-03T10:51:54;24.20;87.70
9537;DHT22;4807;48.024;11.726;2022-09-03T10:55:17;24.50;90.10
9537;DHT22;4807;48.024;11.726;2022-09-03T10:58:51;24.60;87.70
9537;DHT22;4807;48.024;11.726;2022-09-03T11:02:28;23.50;90.60
9537;DHT22;4807;48.024;11.726;2022-09-03T11:05:59;23.10;90.30
9537;DHT22;4807;48.024;11.726;2022-09-03T11:09:16;23.20;90.40
9537;DHT22;4807;48.024;11.726;2022-09-03T11:12:32;23.10;88.00
9537;DHT22;4807;48.024;11.726;2022-09-03T11:15:47;23.10;88.60
9537;DHT22;4807;48.024;11.726;2022-09-03T11:19:03;23.10;90.30
9537;DHT22;4807;48.024;11.726;2022-09-03T11:22:16;23.00;89.70
9537;DHT22;4807;48.024;11.726;2022-09-03T11:25:30;23.00;90.90
9537;DHT22;4807;48.024;11.726;2022-09-03T11:28:47;23.00;90.80
9537;DHT22;4807;48.024;11.726;2022-09-03T11:32:04;22.60;89.10
9537;DHT22;4807;48.024;11.726;2022-09-03T11:35:27;22.50;91.20
9537;DHT22;4807;48.024;11.726;2022-09-03T11:38:45;22.40;90.20
9537;DHT22;4807;48.024;11.726;2022-09-03T11:41:58;22.60;90.20
9537;DHT22;4807;48.024;11.726;2022-09-03T11:45:20;22.90;87.50
9537;DHT22;4807;48.024;11.726;2022-09-03T11:48:37;23.60;89.60
9537;DHT22;4807;48.024;11.726;2022-09-03T11:51:57;24.30;85.20
9537;DHT22;4807;48.024;11.726;2022-09-03T11:55:09;24.70;80.70
9537;DHT22;4807;48.024;11.726;2022-09-03T11:58:22;24.80;80.10
9537;DHT22;4807;48.024;11.726;2022-09-03T12:01:41;24.80;81.20
9537;DHT22;4807;48.024;11.726;2022-09-03T12:05:04;25.10;81.80
9537;DHT22;4807;48.024;11.726;2022-09-03T12:08:41;25.20;82.40
9537;DHT22;4807;48.024;11.726;2022-09-03T12:12:25;25.10;78.50
9537;DHT22;4807;48.024;11.726;2022-09-03T12:19:40;24.30;80.60
9537;DHT22;4807;48.024;11.726;2022-09-03T12:22:59;24.00;82.70
9537;DHT22;4807;48.024;11.726;2022-09-03T12:26:11;23.80;85.10
9537;DHT22;4807;48.024;11.726;2022-09-03T12:29:27;23.80;83.30
9537;DHT22;4807;48.024;11.726;2022-09-03T12:32:38;23.70;82.00
9537;DHT22;4807;48.024;11.726;2022-09-03T12:35:56;23.70;83.90
9537;DHT22;4807;48.024;11.726;2022-09-03T12:39:08;23.70;82.20
9537;DHT22;4807;48.024;11.726;2022-09-03T12:42:22;23.80;81.50
9537;DHT22;4807;48.024;11.726;2022-09-03T12:45:42;23.90;83.20
9537;DHT22;4807;48.024;11.726;2022-09-03T12:49:14;23.90;83.30
9537;DHT22;4807;48.024;11.726;2022-09-03T12:52:40;23.90;84.00
9537;DHT22;4807;48.024;11.726;2022-09-03T12:55:54;23.90;83.90
9537;DHT22;4807;48.024;11.726;2022-09-03T12:59:11;23.90;83.00
9537;DHT22;4807;48.024;11.726;2022-09-03T13:02:34;23.90;82.20
9537;DHT22;4807;48.024;11.726;2022-09-03T13:05:51;23.80;80.90
9537;DHT22;4807;48.024;11.726;2022-09-03T13:09:06;23.80;80.80
9537;DHT22;4807;48.024;11.726;2022-09-03T13:12:22;23.70;80.50
9537;DHT22;4807;48.024;11.726;2022-09-03T13:15:39;23.60;81.60
9537;DHT22;4807;48.024;11.726;2022-09-03T13:18:53;23.60;80.60
9537;DHT22;4807;48.024;11.726;2022-09-03T13:22:20;23.60;81.10
9537;DHT22;4807;48.024;11.726;2022-09-03T13:25:48;23.50;80.20
9537;DHT22;4807;48.024;11.726;2022-09-03T13:29:35;23.30;80.50
9537;DHT22;4807;48.024;11.726;2022-09-03T13:32:54;23.30;81.80
9537;DHT22;4807;48.024;11.726;2022-09-03T13:36:14;23.30;81.10
9537;DHT22;4807;48.024;11.726;2022-09-03T13:39:28;23.50;81.70
9537;DHT22;4807;48.024;11.726;2022-09-03T13:42:44;23.60;81.50
9537;DHT22;4807;48.024;11.726;2022-09-03T13:46:05;23.80;79.10
9537;DHT22;4807;48.024;11.726;2022-09-03T13:49:27;23.60;80.30
9537;DHT22;4807;48.024;11.726;2022-09-03T13:53:03;23.70;80.40
9537;DHT22;4807;48.024;11.726;2022-09-03T13:56:22;23.70;81.00
9537;DHT22;4807;48.024;11.726;2022-09-03T13:59:47;23.40;82.00
9537;DHT22;4807;48.024;11.726;2022-09-03T14:03:06;23.20;84.60
9537;DHT22;4807;48.024;11.726;2022-09-03T14:06:37;23.20;83.40
9537;DHT22;4807;48.024;11.726;2022-09-03T14:09:57;23.20;85.10
9537;DHT22;4807;48.024;11.726;2022-09-03T14:13:17;23.20;85.70
9537;DHT22;4807;48.024;11.726;2022-09-03T14:16:43;23.10;87.30
9537;DHT22;4807;48.024;11.726;2022-09-03T14:20:01;22.90;87.50
9537;DHT22;4807;48.024;11.726;2022-09-03T14:23:25;22.70;89.70
9537;DHT22;4807;48.024;11.726;2022-09-03T14:26:51;22.40;90.70
9537;DHT22;4807;48.024;11.726;2022-09-03T14:30:04;22.20;90.90
9537;DHT22;4807;48.024;11.726;2022-09-03T15:07:31;23.00;91.50
9537;DHT22;4807;48.024;11.726;2022-09-03T15:10:46;23.60;94.70
9537;DHT22;4807;48.024;11.726;2022-09-03T15:14:08;24.90;93.50
9537;DHT22;4807;48.024;11.726;2022-09-03T15:17:34;25.10;91.70
9537;DHT22;4807;48.024;11.726;2022-09-03T15:31:01;21.50;91.10
9537;DHT22;4807;48.024;11.726;2022-09-03T15:34:46;20.80;92.80
9537;DHT22;4807;48.024;11.726;2022-09-03T15:38:20;18.10;98.40
9537;DHT22;4807;48.024;11.726;2022-09-03T15:41:45;16.80;99.90
9537;DHT22;4807;48.024;11.726;2022-09-03T15:45:04;16.00;99.90
9537;DHT22;4807;48.024;11.726;2022-09-03T15:48:29;15.60;99.90
9537;DHT22;4807;48.024;11.726;2022-09-03T15:51:57;15.50;99.90
9537;DHT22;4807;48.024;11.726;2022-09-03T15:55:22;15.30;99.90
9537;DHT22;4807;48.024;11.726;2022-09-03T15:58:41;15.40;99.90
9537;DHT22;4807;48.024;11.726;2022-09-03T16:02:03;15.30;99.90
9537;DHT22;4807;48.024;11.726;2022-09-03T16:05:20;15.30;99.90
9537;DHT22;4807;48.024;11.726;2022-09-03T16:08:40;15.30;99.90
9537;DHT22;4807;48.024;11.726;2022-09-03T16:11:58;15.30;99.90
9537;DHT22;4807;48.024;11.726;2022-09-03T16:15:21;15.30;99.90
9537;DHT22;4807;48.024;11.726;2022-09-03T16:18:38;15.40;99.90
9537;DHT22;4807;48.024;11.726;2022-09-03T16:22:02;15.60;99.90
9537;DHT22;4807;48.024;11.726;2022-09-03T16:25:20;15.80;99.90
9537;DHT22;4807;48.024;11.726;2022-09-03T16:28:42;16.00;99.90
9537;DHT22;4807;48.024;11.726;2022-09-03T16:32:21;16.30;99.90
9537;DHT22;4807;48.024;11.726;2022-09-03T16:35:49;16.50;99.90
9537;DHT22;4807;48.024;11.726;2022-09-03T16:39:20;16.90;99.90
9537;DHT22;4807;48.024;11.726;2022-09-03T16:42:42;17.20;99.90
9537;DHT22;4807;48.024;11.726;2022-09-03T16:46:07;17.50;99.90
9537;DHT22;4807;48.024;11.726;2022-09-03T16:49:37;17.70;99.90
9537;DHT22;4807;48.024;11.726;2022-09-03T16:53:03;17.80;99.90
9537;DHT22;4807;48.024;11.726;2022-09-03T16:56:36;17.60;99.90
9537;DHT22;4807;48.024;11.726;2022-09-03T17:00:07;17.30;99.90
9537;DHT22;4807;48.024;11.726;2022-09-03T17:03:38;17.10;99.90
9537;DHT22;4807;48.024;11.726;2022-09-03T17:07:07;16.90;99.90
9537;DHT22;4807;48.024;11.726;2022-09-03T17:10:40;16.60;99.90
9537;DHT22;4807;48.024;11.726;2022-09-03T17:14:17;16.40;99.90
9537;DHT22;4807;48.024;11.726;2022-09-03T17:18:02;16.10;99.90
9537;DHT22;4807;48.024;11.726;2022-09-03T17:21:37;15.90;99.90
9537;DHT22;4807;48.024;11.726;2022-09-03T17:24:52;15.70;99.90
9537;DHT22;4807;48.024;11.726;2022-09-03T17:28:16;15.70;99.90
9537;DHT22;4807;48.024;11.726;2022-09-03T17:31:42;15.50;99.90
9537;DHT22;4807;48.024;11.726;2022-09-03T17:35:06;15.30;99.90
9537;DHT22;4807;48.024;11.726;2022-09-03T17:38:28;15.20;99.90
9537;DHT22;4807;48.024;11.726;2022-09-03T17:41:51;15.10;99.90
9537;DHT22;4807;48.024;11.726;2022-09-03T17:45:09;15.00;99.90
9537;DHT22;4807;48.024;11.726;2022-09-03T17:48:47;16.30;99.90
9537;DHT22;4807;48.024;11.726;2022-09-03T17:52:01;14.60;99.90
9537;DHT22;4807;48.024;11.726;2022-09-03T17:55:16;14.50;99.90
9537;DHT22;4807;48.024;11.726;2022-09-03T17:58:34;14.40;99.90
9537;DHT22;4807;48.024;11.726;2022-09-03T18:01:51;14.30;99.90
9537;DHT22;4807;48.024;11.726;2022-09-03T18:05:18;14.10;99.90
9537;DHT22;4807;48.024;11.726;2022-09-03T18:08:39;14.00;99.90
9537;DHT22;4807;48.024;11.726;2022-09-03T18:11:57;13.90;99.90
9537;DHT22;4807;48.024;11.726;2022-09-03T18:15:19;13.90;99.90
9537;DHT22;4807;48.024;11.726;2022-09-03T18:18:35;13.80;99.90
9537;DHT22;4807;48.024;11.726;2022-09-03T18:21:50;13.70;99.90
9537;DHT22;4807;48.024;11.726;2022-09-03T18:25:16;13.70;99.90
9537;DHT22;4807;48.024;11.726;2022-09-03T18:28:47;13.60;99.90
9537;DHT22;4807;48.024;11.726;2022-09-03T18:32:18;13.60;99.90
9537;DHT22;4807;48.024;11.726;2022-09-03T18:35:45;13.50;99.90
9537;DHT22;4807;48.024;11.726;2022-09-03T18:39:15;13.50;99.90
9537;DHT22;4807;48.024;11.726;2022-09-03T18:42:55;13.50;99.90
9537;DHT22;4807;48.024;11.726;2022-09-03T18:46:39;13.40;99.90
9537;DHT22;4807;48.024;11.726;2022-09-03T18:50:44;13.30;99.90
9537;DHT22;4807;48.024;11.726;2022-09-03T18:54:24;13.30;99.90
9537;DHT22;4807;48.024;11.726;2022-09-03T18:58:22;13.30;99.90
9537;DHT22;4807;48.024;11.726;2022-09-03T19:01:55;13.20;99.90
9537;DHT22;4807;48.024;11.726;2022-09-03T19:05:26;13.20;99.90
9537;DHT22;4807;48.024;11.726;2022-09-03T19:09:02;13.10;99.90
9537;DHT22;4807;48.024;11.726;2022-09-03T19:12:43;13.10;99.90
9537;DHT22;4807;48.024;11.726;2022-09-03T19:16:33;13.00;99.90
9537;DHT22;4807;48.024;11.726;2022-09-03T19:20:13;12.90;99.90
9537;DHT22;4807;48.024;11.726;2022-09-03T19:23:46;12.80;99.90
9537;DHT22;4807;48.024;11.726;2022-09-03T19:27:18;12.80;99.90
9537;DHT22;4807;48.024;11.726;2022-09-03T19:35:15;12.90;99.90
9537;DHT22;4807;48.024;11.726;2022-09-03T19:38:51;12.80;99.90
9537;DHT22;4807;48.024;11.726;2022-09-03T19:42:36;12.90;99.90
9537;DHT22;4807;48.024;11.726;2022-09-03T19:46:21;12.70;99.90
9537;DHT22;4807;48.024;11.726;2022-09-03T19:50:03;12.70;99.90
9537;DHT22;4807;48.024;11.726;2022-09-03T19:53:37;12.90;99.90
9537;DHT22;4807;48.024;11.726;2022-09-03T19:57:04;12.70;99.90
9537;DHT22;4807;48.024;11.726;2022-09-03T20:00:31;12.60;99.90
9537;DHT22;4807;48.024;11.726;2022-09-03T20:04:14;12.60;99.90
9537;DHT22;4807;48.024;11.726;2022-09-03T20:07:40;12.50;99.90
9537;DHT22;4807;48.024;11.726;2022-09-03T20:11:09;12.50;99.90
9537;DHT22;4807;48.024;11.726;2022-09-03T20:14:34;12.50;99.90
9537;DHT22;4807;48.024;11.726;2022-09-03T20:17:50;12.60;99.90
9537;DHT22;4807;48.024;11.726;2022-09-03T20:21:17;12.60;99.90
9537;DHT22;4807;48.024;11.726;2022-09-03T20:24:38;12.60;99.90
9537;DHT22;4807;48.024;11.726;2022-09-03T20:28:00;12.50;99.90
9537;DHT22;4807;48.024;11.726;2022-09-03T20:31:22;12.40;99.90
9537;DHT22;4807;48.024;11.726;2022-09-03T20:34:40;12.40;99.90
9537;DHT22;4807;48.024;11.726;2022-09-03T20:38:07;12.30;99.90
9537;DHT22;4807;48.024;11.726;2022-09-03T20:41:36;12.20;99.90
9537;DHT22;4807;48.024;11.726;2022-09-03T20:45:01;12.20;99.90
9537;DHT22;4807;48.024;11.726;2022-09-03T20:48:17;12.30;99.90
9537;DHT22;4807;48.024;11.726;2022-09-03T20:51:34;12.30;99.90
9537;DHT22;4807;48.024;11.726;2022-09-03T20:54:59;12.30;99.90
9537;DHT22;4807;48.024;11.726;2022-09-03T20:58:16;12.30;99.90
9537;DHT22;4807;48.024;11.726;2022-09-03T21:01:39;12.30;99.90
9537;DHT22;4807;48.024;11.726;2022-09-03T21:05:03;12.20;99.90
9537;DHT22;4807;48.024;11.726;2022-09-03T21:08:43;12.10;99.90
9537;DHT22;4807;48.024;11.726;2022-09-03T21:12:16;12.10;99.90
9537;DHT22;4807;48.024;11.726;2022-09-03T21:15:42;12.10;99.90
9537;DHT22;4807;48.024;11.726;2022-09-03T21:19:08;12.20;99.90
9537;DHT22;4807;48.024;11.726;2022-09-03T21:22:31;12.20;99.90
9537;DHT22;4807;48.024;11.726;2022-09-03T21:25:51;12.10;99.90
9537;DHT22;4807;48.024;11.726;2022-09-03T21:29:08;12.10;99.90
9537;DHT22;4807;48.024;11.726;2022-09-03T21:32:32;12.20;99.90
9537;DHT22;4807;48.024;11.726;2022-09-03T21:35:49;12.20;99.90
9537;DHT22;4807;48.024;11.726;2022-09-03T21:39:05;12.20;99.90
9537;DHT22;4807;48.024;11.726;2022-09-03T21:42:21;12.20;99.90
9537;DHT22;4807;48.024;11.726;2022-09-03T21:45:39;12.30;99.90
9537;DHT22;4807;48.024;11.726;2022-09-03T21:48:55;12.20;99.90
9537;DHT22;4807;48.024;11.726;2022-09-03T21:52:09;12.20;99.90
9537;DHT22;4807;48.024;11.726;2022-09-03T21:55:30;12.10;99.90
9537;DHT22;4807;48.024;11.726;2022-09-03T21:59:04;12.10;99.90
9537;DHT22;4807;48.024;11.726;2022-09-03T22:02:22;12.00;99.90
9537;DHT22;4807;48.024;11.726;2022-09-03T22:05:42;12.00;99.90
9537;DHT22;4807;48.024;11.726;2022-09-03T22:09:05;11.90;99.90
9537;DHT22;4807;48.024;11.726;2022-09-03T22:12:23;11.90;99.90
9537;DHT22;4807;48.024;11.726;2022-09-03T22:15:36;11.90;99.90
9537;DHT22;4807;48.024;11.726;2022-09-03T22:18:46;11.90;99.90
9537;DHT22;4807;48.024;11.726;2022-09-03T22:21:57;11.90;99.90
9537;DHT22;4807;48.024;11.726;2022-09-03T22:25:09;11.90;99.90
9537;DHT22;4807;48.024;11.726;2022-09-03T22:28:25;11.90;99.90
9537;DHT22;4807;48.024;11.726;2022-09-03T22:31:48;11.80;99.90
9537;DHT22;4807;48.024;11.726;2022-09-03T22:35:22;11.80;99.90